Time;durP1;ratioP1;P1;durP2;ratioP2;P2;SDS_P1;SDS_P2;PMS_P1;PMS_P2;Temp;Humidity;BMP_temperature;BMP_pressure;BME280_temperature;BME280_humidity;BME280_pressure;Samples;Min_cycle;Max_cycle;Signal;HPM_P1;HPM_P2
2023/03/31 00:01:11;;;;;;;6.05;4.00;;;;;;;2.23;70.84;101377.52;1899328;75;21095;-56
2023/03/31 00:03:42;;;;;;;3.42;1.87;;;;;;;2.21;71.32;101375.35;1899204;75;21110;-48
2023/03/31 00:06:16;;;;;;;2.77;2.27;;;;;;;2.18;71.36;101374.92;1899132;75;21118;-49
2023/03/31 00:08:42;;;;;;;3.50;1.67;;;;;;;2.15;71.41;101378.78;1899088;75;21594;-49
2023/03/31 00:11:11;;;;;;;5.08;2.45;;;;;;;2.11;71.55;101377.89;1899218;75;21044;-50
2023/03/31 00:13:40;;;;;;;2.58;1.30;;;;;;;2.08;71.40;101372.67;1899474;75;21145;-50
2023/03/31 00:16:10;;;;;;;4.42;2.25;;;;;;;2.08;71.28;101372.67;1899206;75;21110;-55
2023/03/31 00:18:46;;;;;;;4.97;2.10;;;;;;;2.10;71.20;101364.89;1899362;75;21044;-53
2023/03/31 00:21:23;;;;;;;3.60;2.33;;;;;;;2.11;71.19;101374.44;1899379;75;21552;-55
2023/03/31 00:23:45;;;;;;;5.10;1.47;;;;;;;2.11;71.17;101367.51;1912980;74;21557;-50
2023/03/31 00:26:13;;;;;;;5.75;2.12;;;;;;;2.15;71.15;101365.80;1924318;74;21055;-48
2023/03/31 00:28:42;;;;;;;3.87;2.00;;;;;;;2.16;71.25;101361.05;1924382;74;21021;-50
2023/03/31 00:31:11;;;;;;;2.70;1.27;;;;;;;2.19;71.32;101368.84;1924150;74;21040;-61
2023/03/31 00:33:39;;;;;;;3.87;1.22;;;;;;;2.18;71.47;101363.23;1924401;74;21176;-53
2023/03/31 00:36:09;;;;;;;3.50;2.02;;;;;;;2.18;71.51;101359.77;1924433;74;21180;-55
2023/03/31 00:38:37;;;;;;;2.87;1.27;;;;;;;2.20;71.58;101356.30;1924370;74;21043;-57
2023/03/31 00:41:06;;;;;;;2.42;1.72;;;;;;;2.22;71.63;101361.08;1924187;74;21041;-58
2023/03/31 00:43:38;;;;;;;8.18;2.87;;;;;;;2.22;71.68;101357.18;1924388;74;21447;-59
2023/03/31 00:46:21;;;;;;;7.75;4.55;;;;;;;2.23;71.82;101362.83;1924125;74;21592;-58
2023/03/31 00:48:53;;;;;;;10.50;4.97;;;;;;;2.27;71.54;101355.48;1922647;74;21546;-47
2023/03/31 00:51:24;;;;;;;7.35;4.72;;;;;;;2.31;71.29;101355.06;1891137;76;21159;-57
2023/03/31 00:53:58;;;;;;;6.55;3.15;;;;;;;2.37;71.13;101361.58;1891237;76;21054;-50
2023/03/31 00:56:28;;;;;;;5.90;1.80;;;;;;;2.40;70.99;101360.72;1890452;76;21143;-54
2023/03/31 00:59:00;;;;;;;4.30;2.12;;;;;;;2.42;70.88;101368.97;1891129;76;21062;-51
2023/03/31 01:01:29;;;;;;;3.58;1.98;;;;;;;2.42;70.86;101358.58;1891130;75;21108;-51
2023/03/31 01:03:58;;;;;;;5.08;2.50;;;;;;;2.43;70.87;101363.34;1892598;75;21523;-47
2023/03/31 01:06:29;;;;;;;5.90;2.70;;;;;;;2.43;70.73;101363.34;1902215;75;21000;-51
2023/03/31 01:08:57;;;;;;;4.50;3.27;;;;;;;2.44;70.67;101359.89;1889168;75;21126;-49
2023/03/31 01:11:29;;;;;;;6.03;2.50;;;;;;;2.45;70.64;101362.50;1904889;75;21152;-51
2023/03/31 01:13:58;;;;;;;6.62;3.67;;;;;;;2.46;70.54;101368.13;1902292;74;21094;-48
2023/03/31 01:16:27;;;;;;;4.17;2.62;;;;;;;2.46;70.51;101368.56;1892063;74;21437;-58
2023/03/31 01:18:56;;;;;;;4.53;2.77;;;;;;;2.47;70.53;101362.07;1897911;75;21489;-53
2023/03/31 01:21:39;;;;;;;6.67;2.20;;;;;;;2.48;70.39;101366.83;1898951;75;21010;-55
2023/03/31 01:24:13;;;;;;;7.05;2.85;;;;;;;2.49;70.36;101367.25;1828507;76;21074;-52
2023/03/31 01:26:51;;;;;;;3.35;2.00;;;;;;;2.47;70.35;101368.98;1862404;77;21101;-50
2023/03/31 01:29:35;;;;;;;3.70;1.90;;;;;;;2.46;70.35;101371.16;1888572;76;21030;-50
2023/03/31 01:32:26;;;;;;;2.83;1.95;;;;;;;2.47;70.36;101371.58;1866671;76;21104;-52
2023/03/31 01:35:15;;;;;;;3.20;2.25;;;;;;;2.46;70.35;101364.66;1906237;74;21011;-49
2023/03/31 01:38:06;;;;;;;7.17;2.22;;;;;;;2.48;70.41;101365.53;1922125;74;21112;-50
2023/03/31 01:40:54;;;;;;;9.75;3.55;;;;;;;2.49;70.30;101368.55;1894176;76;21532;-49
2023/03/31 01:43:47;;;;;;;11.55;4.53;;;;;;;2.48;70.33;101367.69;1894285;76;21127;-50
2023/03/31 01:46:34;;;;;;;7.05;4.45;;;;;;;2.51;70.29;101366.86;1894178;76;21473;-48
2023/03/31 01:49:26;;;;;;;3.83;2.77;;;;;;;2.53;70.27;101367.73;1894303;76;21089;-57
2023/03/31 01:52:07;;;;;;;5.95;2.37;;;;;;;2.56;70.32;101369.45;1926241;73;21117;-57
2023/03/31 01:54:41;;;;;;;4.92;2.12;;;;;;;2.57;70.28;101376.41;1927352;74;21096;-57
2023/03/31 01:57:25;;;;;;;4.60;2.83;;;;;;;2.58;70.29;101380.73;1927373;74;21038;-55
2023/03/31 02:00:13;;;;;;;8.00;2.15;;;;;;;2.60;70.44;101381.60;1916554;74;21070;-56
2023/03/31 02:02:50;;;;;;;4.55;2.40;;;;;;;2.63;70.41;101383.78;1927400;74;21551;-56
2023/03/31 02:05:27;;;;;;;3.87;2.40;;;;;;;2.66;70.37;101386.84;1925797;74;21094;-56
2023/03/31 02:08:05;;;;;;;5.62;1.82;;;;;;;2.69;70.32;101382.94;1927575;74;21113;-56
2023/03/31 02:10:36;;;;;;;2.75;1.60;;;;;;;2.72;70.28;101383.40;1915540;74;21591;-56
2023/03/31 02:13:07;;;;;;;2.58;1.87;;;;;;;2.76;70.31;101382.54;1927352;74;21066;-58
2023/03/31 02:15:39;;;;;;;7.95;2.05;;;;;;;2.76;70.36;101382.54;1927313;74;21042;-54
2023/03/31 02:18:10;;;;;;;6.50;2.37;;;;;;;2.74;70.34;101384.27;1927363;74;21112;-54
2023/03/31 02:20:42;;;;;;;4.85;2.55;;;;;;;2.72;70.39;101377.76;1927579;74;21132;-54
2023/03/31 02:23:14;;;;;;;6.33;3.37;;;;;;;2.71;70.55;101374.70;1927363;74;21038;-52
2023/03/31 02:25:48;;;;;;;7.20;3.47;;;;;;;2.74;70.53;101371.27;1892409;74;21524;-52
2023/03/31 02:28:27;;;;;;;7.40;2.77;;;;;;;2.75;70.55;101369.98;1868949;76;21552;-52
2023/03/31 02:31:10;;;;;;;3.17;2.45;;;;;;;2.76;70.54;101368.23;1884454;76;21469;-57
2023/03/31 02:33:41;;;;;;;3.70;1.70;;;;;;;2.73;70.54;101374.72;1879520;76;21054;-55
2023/03/31 02:36:10;;;;;;;1.55;1.07;;;;;;;2.73;70.41;101369.52;1870351;76;21866;-57
2023/03/31 02:38:42;;;;;;;3.20;1.62;;;;;;;2.73;70.39;101366.91;1869096;76;21085;-58
2023/03/31 02:41:11;;;;;;;5.05;1.70;;;;;;;2.69;70.34;101362.13;1871768;76;21050;-57
2023/03/31 02:43:40;;;;;;;2.02;1.57;;;;;;;2.62;70.35;101357.36;1880097;76;21047;-56
2023/03/31 02:46:09;;;;;;;3.33;1.70;;;;;;;2.58;70.45;101359.48;1883752;76;21210;-57
2023/03/31 02:48:47;;;;;;;2.85;1.67;;;;;;;2.52;70.59;101363.38;1877270;76;21046;-55
2023/03/31 02:51:18;;;;;;;3.00;1.55;;;;;;;2.47;70.90;101362.48;1882552;76;21104;-56
2023/03/31 02:54:08;;;;;;;1.62;0.93;;;;;;;2.45;71.04;101364.20;1866937;76;21160;-57
2023/03/31 02:56:59;;;;;;;9.78;1.98;;;;;;;2.46;71.08;101364.66;1866228;75;21275;-55
2023/03/31 02:59:37;;;;;;;2.98;1.42;;;;;;;2.43;71.52;101365.50;1885262;76;21143;-54
2023/03/31 03:02:24;;;;;;;5.30;1.10;;;;;;;2.43;71.67;101369.83;1876094;76;21221;-56
2023/03/31 03:05:07;;;;;;;2.75;1.45;;;;;;;2.47;71.67;101369.88;1882057;76;21548;-55
2023/03/31 03:07:52;;;;;;;1.55;0.70;;;;;;;2.50;72.19;101366.41;1816708;76;21062;-53
2023/03/31 03:10:30;;;;;;;4.15;1.22;;;;;;;2.55;72.52;101363.40;1893933;75;21117;-52
2023/03/31 03:13:07;;;;;;;1.42;1.05;;;;;;;2.60;73.27;101361.69;1878034;76;21031;-57
2023/03/31 03:15:45;;;;;;;0.80;0.75;;;;;;;2.59;73.33;101361.24;1873172;75;21188;-54
2023/03/31 03:18:14;;;;;;;2.05;0.70;;;;;;;2.57;73.82;101359.07;1885212;76;21125;-52
2023/03/31 03:20:49;;;;;;;1.07;0.60;;;;;;;2.55;73.67;101347.80;1883935;76;21757;-51
2023/03/31 03:23:14;;;;;;;1.17;0.65;;;;;;;2.56;73.81;101359.06;1875157;76;21145;-51
2023/03/31 03:25:43;;;;;;;2.02;0.90;;;;;;;2.56;74.10;101354.72;1876630;76;21631;-53
2023/03/31 03:28:12;;;;;;;1.25;0.95;;;;;;;2.58;74.34;101347.79;1863498;76;21038;-50
2023/03/31 03:30:40;;;;;;;1.30;1.10;;;;;;;2.62;74.46;101357.36;1861183;76;21931;-54
2023/03/31 03:33:09;;;;;;;1.27;1.17;;;;;;;2.64;74.42;101353.03;1880746;76;21109;-53
2023/03/31 03:35:38;;;;;;;1.57;1.35;;;;;;;2.67;74.29;101356.95;1871645;76;21688;-51
2023/03/31 03:38:07;;;;;;;3.20;1.85;;;;;;;2.69;74.17;101360.42;1870838;76;21018;-51
2023/03/31 03:40:35;;;;;;;1.75;1.15;;;;;;;2.74;74.06;101368.22;1874553;76;21148;-51
2023/03/31 03:43:04;;;;;;;2.47;1.65;;;;;;;2.76;73.85;101372.14;1861375;76;21461;-52
2023/03/31 03:45:32;;;;;;;3.10;1.52;;;;;;;2.79;73.89;101369.56;1863136;76;21146;-51
2023/03/31 03:48:01;;;;;;;2.83;1.60;;;;;;;2.83;73.82;101376.50;1875828;76;21153;-51
2023/03/31 03:50:29;;;;;;;2.72;1.20;;;;;;;2.85;73.87;101376.92;1864753;76;21026;-53
2023/03/31 03:52:58;;;;;;;6.28;1.77;;;;;;;2.90;74.00;101380.86;1878366;76;21072;-53
2023/03/31 03:55:27;;;;;;;2.75;1.32;;;;;;;2.98;74.10;101373.93;1880006;75;21145;-51
2023/03/31 03:57:56;;;;;;;1.67;1.02;;;;;;;3.05;73.98;101373.08;1870534;76;21741;-50
2023/03/31 04:00:25;;;;;;;3.47;1.40;;;;;;;3.16;73.81;101367.05;1853381;76;21035;-50
2023/03/31 04:02:54;;;;;;;2.12;1.20;;;;;;;3.26;73.86;101363.16;1855629;76;21501;-52
2023/03/31 04:05:23;;;;;;;3.20;1.82;;;;;;;3.43;73.86;101368.38;1855640;76;21505;-50
2023/03/31 04:07:51;;;;;;;1.72;1.40;;;;;;;3.58;73.77;101367.91;1880875;76;21539;-53
2023/03/31 04:10:20;;;;;;;9.40;1.85;;;;;;;3.67;73.60;101366.20;1855548;76;21039;-50
2023/03/31 04:12:49;;;;;;;2.87;1.70;;;;;;;3.79;73.41;101369.66;1853102;76;21046;-59
2023/03/31 04:15:18;;;;;;;2.15;1.20;;;;;;;3.87;73.36;101371.80;1855537;76;21478;-55
2023/03/31 04:17:49;;;;;;;1.95;1.20;;;;;;;3.97;73.23;101370.08;1867256;76;21042;-57
2023/03/31 04:20:18;;;;;;;2.10;1.52;;;;;;;4.03;73.15;101376.13;1868337;76;21011;-57
2023/03/31 04:22:49;;;;;;;10.82;3.85;;;;;;;4.14;73.04;101366.98;1855535;76;21050;-47
2023/03/31 04:25:18;;;;;;;3.67;2.12;;;;;;;4.27;72.85;101374.78;1858077;76;21035;-48
2023/03/31 04:27:54;;;;;;;8.85;4.05;;;;;;;4.38;72.70;101377.78;1872426;76;21148;-57
2023/03/31 04:30:29;;;;;;;3.27;2.98;;;;;;;4.52;72.58;101379.05;1875118;76;21097;-55
2023/03/31 04:32:58;;;;;;;21.17;6.15;;;;;;;4.61;72.45;101381.63;1874814;76;21505;-58
2023/03/31 04:35:51;;;;;;;4.85;4.12;;;;;;;4.73;72.45;101385.05;1872271;76;21031;-57
2023/03/31 04:38:01;;;;;;;3.67;2.47;;;;;;;4.88;72.43;101379.74;1858034;76;21038;-57
2023/03/31 04:40:30;;;;;;;6.12;2.10;;;;;;;4.78;71.97;101374.16;1830980;76;21029;-53
2023/03/31 04:42:58;;;;;;;5.25;1.20;;;;;;;4.57;72.22;101387.70;1832635;76;21006;-53
2023/03/31 04:45:27;;;;;;;2.62;1.00;;;;;;;4.41;72.74;101380.83;1829554;78;21089;-59
2023/03/31 04:47:55;;;;;;;0.98;0.85;;;;;;;4.35;72.97;101378.22;1833194;76;21026;-51
2023/03/31 04:50:24;;;;;;;2.62;1.00;;;;;;;4.37;73.12;101386.91;1839807;76;21050;-54
2023/03/31 04:52:52;;;;;;;6.40;1.20;;;;;;;4.38;73.22;101376.47;1872248;76;21129;-55
2023/03/31 04:55:21;;;;;;;0.65;0.62;;;;;;;4.48;73.15;101386.42;1875455;76;21062;-59
2023/03/31 04:57:50;;;;;;;1.37;0.95;;;;;;;4.52;73.12;101390.78;1840467;76;21050;-58
2023/03/31 05:00:20;;;;;;;0.60;0.60;;;;;;;4.52;73.11;101387.28;1869061;75;21804;-61
2023/03/31 05:02:48;;;;;;;6.12;2.42;;;;;;;4.49;72.99;101385.56;1848745;76;21022;-60
2023/03/31 05:05:18;;;;;;;2.90;1.35;;;;;;;4.48;73.23;101392.95;1829644;78;21493;-59
2023/03/31 05:07:46;;;;;;;3.42;1.62;;;;;;;4.50;73.52;101388.63;1863988;76;21003;-60
2023/03/31 05:10:15;;;;;;;0.85;0.85;;;;;;;4.66;73.91;101397.23;1852235;76;21023;-59
2023/03/31 05:12:44;;;;;;;1.25;1.00;;;;;;;4.80;73.79;101410.23;1855642;76;21061;-60
2023/03/31 05:15:13;;;;;;;1.05;1.00;;;;;;;4.85;73.72;101391.52;1829666;78;21038;-58
2023/03/31 05:17:41;;;;;;;1.10;1.00;;;;;;;4.93;73.54;101397.55;1833114;76;21472;-55
2023/03/31 05:20:12;;;;;;;1.80;1.10;;;;;;;5.08;73.43;101399.66;1833003;76;21030;-49
2023/03/31 05:22:41;;;;;;;3.60;1.00;;;;;;;5.15;73.30;101396.14;1858624;75;21023;-49
2023/03/31 05:25:10;;;;;;;2.05;1.12;;;;;;;5.27;73.23;101396.04;1860579;75;21460;-49
2023/03/31 05:27:39;;;;;;;1.70;0.95;;;;;;;5.37;72.90;101388.58;1855259;76;21552;-50
2023/03/31 05:30:09;;;;;;;4.97;1.25;;;;;;;5.54;72.74;101387.59;1866690;76;21045;-49
2023/03/31 05:32:37;;;;;;;1.75;0.90;;;;;;;5.88;72.60;101380.77;1838346;76;21058;-49
2023/03/31 05:35:06;;;;;;;2.95;0.95;;;;;;;6.32;72.44;101379.48;1834258;78;21056;-50
2023/03/31 05:37:35;;;;;;;2.47;0.80;;;;;;;6.64;71.82;101385.66;1857201;77;21499;-56
2023/03/31 05:40:06;;;;;;;2.65;1.67;;;;;;;6.95;71.35;101383.50;1857387;77;21113;-52
2023/03/31 05:42:35;;;;;;;2.33;0.80;;;;;;;7.27;71.04;101390.02;1829320;77;21068;-52
2023/03/31 05:45:05;;;;;;;1.17;0.95;;;;;;;7.54;70.64;101386.12;1827339;77;21491;-53
2023/03/31 05:47:33;;;;;;;2.52;1.15;;;;;;;7.72;70.13;101380.14;1856864;77;21072;-57
2023/03/31 05:50:06;;;;;;;1.32;0.88;;;;;;;7.71;68.86;101383.21;1839047;77;21021;-58
2023/03/31 05:52:32;;;;;;;2.45;1.00;;;;;;;7.75;68.35;101384.03;1846153;77;21238;-56
2023/03/31 05:55:01;;;;;;;6.15;2.37;;;;;;;7.85;68.32;101380.79;1827385;77;21048;-57
2023/03/31 05:57:30;;;;;;;1.75;1.20;;;;;;;8.10;68.43;101374.22;1829591;77;21100;-57
2023/03/31 05:59:58;;;;;;;1.85;1.40;;;;;;;8.31;68.11;101387.81;1857714;77;21058;-56
2023/03/31 06:02:27;;;;;;;1.45;1.00;;;;;;;8.63;67.58;101388.95;1824185;77;21126;-58
2023/03/31 06:04:55;;;;;;;2.70;1.17;;;;;;;8.86;66.41;101386.72;1839156;76;21109;-51
2023/03/31 06:07:25;;;;;;;3.10;1.00;;;;;;;9.27;66.12;101384.92;1867909;76;21054;-53
2023/03/31 06:09:53;;;;;;;2.40;1.12;;;;;;;9.73;65.55;101374.20;1857281;77;21591;-48
2023/03/31 06:12:22;;;;;;;3.42;1.10;;;;;;;10.24;63.54;101380.31;1832835;77;21034;-50
2023/03/31 06:14:51;;;;;;;3.25;0.90;;;;;;;10.65;62.16;101374.36;1852362;77;21136;-49
2023/03/31 06:17:19;;;;;;;2.90;0.80;;;;;;;10.87;60.68;101385.59;1857906;76;21030;-56
2023/03/31 06:19:48;;;;;;;4.35;0.90;;;;;;;10.98;60.25;101378.22;1833193;77;21116;-51
2023/03/31 06:22:17;;;;;;;1.32;0.80;;;;;;;11.39;58.55;101377.36;1851014;77;21014;-58
2023/03/31 06:24:45;;;;;;;0.90;0.62;;;;;;;11.58;54.90;101373.66;1820839;77;21145;-57
2023/03/31 06:27:14;;;;;;;2.67;1.02;;;;;;;11.80;54.61;101361.93;1857490;74;21134;-56
2023/03/31 06:29:43;;;;;;;6.08;1.35;;;;;;;12.19;54.16;101379.99;1909546;75;21045;-54
2023/03/31 06:32:11;;;;;;;4.97;1.02;;;;;;;12.56;54.12;101372.05;1906246;74;21116;-56
2023/03/31 06:34:40;;;;;;;3.37;1.00;;;;;;;12.63;51.87;101369.55;1909155;75;21107;-56
2023/03/31 06:37:09;;;;;;;5.55;1.40;;;;;;;12.60;51.16;101373.66;1906130;75;21115;-53
2023/03/31 06:39:38;;;;;;;6.50;1.22;;;;;;;12.72;50.37;101368.35;1909751;75;21489;-50
2023/03/31 06:42:06;;;;;;;3.47;1.20;;;;;;;12.32;47.99;101375.10;1875493;75;21001;-50
2023/03/31 06:44:36;;;;;;;3.00;1.22;;;;;;;12.18;48.83;101374.30;1861760;75;21096;-49
2023/03/31 06:47:05;;;;;;;4.45;1.95;;;;;;;12.09;47.32;101365.38;1865262;75;21061;-54
2023/03/31 06:49:34;;;;;;;5.60;2.08;;;;;;;11.58;45.83;101357.41;1882624;75;21107;-55
2023/03/31 06:52:02;;;;;;;8.55;2.92;;;;;;;11.20;46.33;101368.72;1908427;75;21024;-56
2023/03/31 06:54:31;;;;;;;3.00;1.65;;;;;;;11.49;47.45;101374.84;1870223;75;21441;-57
2023/03/31 06:57:00;;;;;;;6.72;2.05;;;;;;;12.46;47.23;101378.58;1856142;75;21437;-52
2023/03/31 06:59:28;;;;;;;4.40;1.72;;;;;;;13.17;45.44;101360.89;1875673;75;21065;-50
2023/03/31 07:01:57;;;;;;;4.25;2.17;;;;;;;14.07;45.66;101364.66;1862447;75;21017;-52
2023/03/31 07:04:26;;;;;;;4.15;1.20;;;;;;;14.47;42.07;101356.27;1903173;75;21033;-50
2023/03/31 07:06:54;;;;;;;3.50;1.90;;;;;;;14.77;41.09;101354.48;1906331;75;21056;-51
2023/03/31 07:09:23;;;;;;;4.58;1.85;;;;;;;15.18;41.04;101357.83;1924471;74;21099;-51
2023/03/31 07:11:52;;;;;;;1.65;1.00;;;;;;;16.03;40.35;101358.94;1925757;74;21530;-50
2023/03/31 07:14:21;;;;;;;10.28;1.67;;;;;;;16.46;39.60;101355.80;1905293;75;21016;-52
2023/03/31 07:16:50;;;;;;;3.15;1.15;;;;;;;17.34;40.17;101359.80;1909094;75;21440;-52
2023/03/31 07:19:19;;;;;;;6.15;2.00;;;;;;;17.46;35.50;101348.91;1909217;74;21012;-49
2023/03/31 07:21:47;;;;;;;4.78;1.10;;;;;;;16.97;33.46;101353.91;1871195;75;21084;-51
2023/03/31 07:24:16;;;;;;;2.20;1.40;;;;;;;16.69;34.76;101357.19;1862076;77;21037;-50
2023/03/31 07:26:45;;;;;;;7.08;2.47;;;;;;;16.80;34.82;101361.44;1865887;75;21066;-51
2023/03/31 07:29:14;;;;;;;9.40;3.20;;;;;;;17.18;34.65;101363.31;1903307;75;21049;-52
2023/03/31 07:31:42;;;;;;;2.95;1.45;;;;;;;17.11;33.09;101357.11;1927203;74;21520;-49
2023/03/31 07:34:11;;;;;;;6.05;1.45;;;;;;;17.09;33.70;101347.88;1862215;77;21053;-51
2023/03/31 07:36:40;;;;;;;5.47;2.00;;;;;;;16.89;31.75;101348.99;1865278;75;21039;-50
2023/03/31 07:39:08;;;;;;;2.27;1.10;;;;;;;17.19;33.28;101322.95;1862176;77;21096;-50
2023/03/31 07:41:37;;;;;;;3.52;1.30;;;;;;;17.85;33.61;101347.03;1890707;74;21020;-53
2023/03/31 07:44:06;;;;;;;1.50;0.95;;;;;;;18.41;32.28;101347.20;1934863;74;21162;-54
2023/03/31 07:46:34;;;;;;;3.25;1.40;;;;;;;18.68;32.07;101341.06;1939549;74;21118;-55
2023/03/31 07:49:03;;;;;;;5.20;1.72;;;;;;;18.70;30.89;101350.70;1909626;75;21056;-54
2023/03/31 07:51:31;;;;;;;3.22;1.10;;;;;;;18.42;28.89;101358.23;1892028;75;21080;-55
2023/03/31 07:54:00;;;;;;;2.58;0.98;;;;;;;18.02;30.12;101354.04;1909575;74;21036;-48
2023/03/31 07:56:29;;;;;;;2.08;0.82;;;;;;;17.81;29.61;101341.97;1863531;75;21030;-51
2023/03/31 07:58:57;;;;;;;1.72;0.70;;;;;;;18.11;30.95;101341.48;1862136;77;21025;-50
2023/03/31 08:01:28;;;;;;;4.40;1.47;;;;;;;18.30;30.82;101341.69;1862278;77;21520;-48
2023/03/31 08:03:57;;;;;;;3.10;1.40;;;;;;;18.67;30.31;101344.70;1865209;75;21065;-48
2023/03/31 08:06:28;;;;;;;3.67;1.35;;;;;;;18.35;28.24;101323.56;1862237;77;21562;-51
2023/03/31 08:08:57;;;;;;;1.05;0.80;;;;;;;17.13;29.40;101351.22;1862331;77;21123;-47
2023/03/31 08:11:26;;;;;;;2.22;1.10;;;;;;;16.20;30.49;101373.51;1862277;77;21080;-47
2023/03/31 08:13:55;;;;;;;2.42;1.17;;;;;;;16.44;29.63;101343.06;1897954;74;21373;-49
2023/03/31 08:16:24;;;;;;;4.40;1.57;;;;;;;16.82;30.42;101355.59;1925495;74;21012;-50
2023/03/31 08:18:52;;;;;;;1.35;0.95;;;;;;;17.26;30.30;101330.94;1906228;75;21044;-47
2023/03/31 08:21:21;;;;;;;3.80;1.57;;;;;;;17.24;29.43;101327.52;1909704;75;21048;-50
2023/03/31 08:23:49;;;;;;;2.37;1.20;;;;;;;17.41;29.34;101362.94;1901998;75;21241;-48
2023/03/31 08:26:18;;;;;;;4.83;1.67;;;;;;;17.48;29.08;101341.20;1862258;77;21033;-48
2023/03/31 08:28:48;;;;;;;2.65;1.05;;;;;;;17.72;29.97;101362.01;1862100;77;21120;-50
2023/03/31 08:31:18;;;;;;;4.87;1.37;;;;;;;17.86;29.39;101351.91;1892051;74;21103;-53
2023/03/31 08:33:47;;;;;;;2.52;1.17;;;;;;;18.11;30.01;101349.93;1898372;74;21221;-53
2023/03/31 08:36:16;;;;;;;12.33;1.32;;;;;;;18.29;29.62;101357.28;1908655;75;21094;-54
2023/03/31 08:38:45;;;;;;;2.40;0.95;;;;;;;18.39;30.00;101359.77;1910375;74;20997;-50
2023/03/31 08:41:25;;;;;;;6.60;1.70;;;;;;;18.44;30.24;101357.69;1909618;75;21044;-50
2023/03/31 08:43:56;;;;;;;4.65;1.20;;;;;;;18.42;30.04;101359.56;1885476;75;21105;-49
2023/03/31 08:46:28;;;;;;;1.72;0.88;;;;;;;18.24;31.02;101384.69;1862215;77;21041;-49
2023/03/31 08:48:59;;;;;;;2.85;1.30;;;;;;;18.33;30.93;101364.13;1868442;75;21089;-51
2023/03/31 08:51:40;;;;;;;2.05;1.00;;;;;;;18.42;31.43;101360.89;1923525;74;21017;-57
2023/03/31 08:54:11;;;;;;;3.55;1.22;;;;;;;18.58;30.46;101363.95;1941598;74;21026;-57
2023/03/31 08:56:43;;;;;;;3.17;1.10;;;;;;;18.28;29.86;101331.59;1912827;74;21029;-57
2023/03/31 08:59:32;;;;;;;4.33;1.22;;;;;;;17.10;31.04;101374.88;1909795;75;21101;-50
2023/03/31 09:02:22;;;;;;;4.90;1.75;;;;;;;16.79;32.42;101356.60;1904134;75;21103;-53
2023/03/31 09:05:17;;;;;;;4.42;1.07;;;;;;;16.61;32.26;101365.59;1909079;75;21099;-56
2023/03/31 09:07:51;;;;;;;8.03;1.40;;;;;;;16.56;32.99;101375.16;1919871;74;21237;-55
2023/03/31 09:10:31;;;;;;;2.37;1.40;;;;;;;17.77;32.28;101363.08;1940092;74;21033;-56
2023/03/31 09:13:06;;;;;;;2.20;0.95;;;;;;;17.24;31.70;101370.09;1880007;74;21565;-52
2023/03/31 09:15:50;;;;;;;5.30;1.30;;;;;;;17.11;32.42;101364.61;1907692;75;21037;-54
2023/03/31 09:18:36;;;;;;;1.55;0.85;;;;;;;16.85;32.65;101362.56;1884273;75;21107;-54
2023/03/31 09:21:26;;;;;;;1.62;0.70;;;;;;;16.98;32.48;101351.13;1907617;75;21806;-54
2023/03/31 09:24:07;;;;;;;3.87;0.90;;;;;;;17.05;32.08;101376.09;1907798;75;21119;-53
2023/03/31 09:26:51;;;;;;;2.67;0.90;;;;;;;17.21;32.09;101368.95;1907719;75;21480;-50
2023/03/31 09:29:23;;;;;;;3.02;1.15;;;;;;;17.12;31.42;101364.16;1905727;75;21073;-50
2023/03/31 09:31:53;;;;;;;4.80;1.37;;;;;;;17.03;31.74;101374.84;1900811;75;21065;-51
2023/03/31 09:34:33;;;;;;;2.70;0.80;;;;;;;16.65;32.39;101368.94;1901152;75;21045;-53
2023/03/31 09:37:02;;;;;;;5.50;1.40;;;;;;;16.39;33.28;101365.41;1901097;75;21045;-52
2023/03/31 09:39:30;;;;;;;2.33;0.82;;;;;;;16.82;33.52;101352.94;1901297;75;21512;-53
2023/03/31 09:41:59;;;;;;;4.40;1.20;;;;;;;17.01;32.71;101364.76;1901141;75;21100;-53
2023/03/31 09:44:31;;;;;;;3.20;0.80;;;;;;;17.31;32.00;101329.36;1901059;75;21119;-49
2023/03/31 09:47:02;;;;;;;4.83;0.90;;;;;;;16.89;31.92;101338.35;1901358;75;21115;-51
2023/03/31 09:49:34;;;;;;;3.50;1.10;;;;;;;16.29;32.91;101356.23;1901197;75;21111;-53
2023/03/31 09:52:08;;;;;;;2.08;0.88;;;;;;;15.62;33.72;101361.86;1901027;75;21052;-53
2023/03/31 09:54:42;;;;;;;1.85;0.80;;;;;;;16.00;33.75;101364.39;1900839;75;21476;-51
2023/03/31 09:57:25;;;;;;;2.95;1.12;;;;;;;16.62;33.33;101343.39;1901272;75;21487;-53
2023/03/31 09:59:55;;;;;;;3.92;1.22;;;;;;;17.35;33.25;101338.42;1901213;75;21119;-52
2023/03/31 10:02:30;;;;;;;4.10;1.17;;;;;;;17.43;31.33;101350.40;1900683;75;21428;-52
2023/03/31 10:05:00;;;;;;;2.83;0.82;;;;;;;17.32;30.69;101335.92;1900653;75;21037;-52
2023/03/31 10:07:28;;;;;;;1.85;1.00;;;;;;;17.15;31.11;101326.70;1901071;75;21081;-53
2023/03/31 10:09:58;;;;;;;2.98;0.98;;;;;;;16.14;32.22;101337.98;1901031;75;21547;-53
2023/03/31 10:12:29;;;;;;;1.57;0.85;;;;;;;15.63;32.91;101333.91;1901071;75;21096;-51
2023/03/31 10:15:22;;;;;;;5.05;0.80;;;;;;;15.55;33.44;101344.55;1901071;75;21114;-50
2023/03/31 10:17:51;;;;;;;2.20;1.03;;;;;;;15.50;33.55;101326.66;1805978;79;21493;-51
2023/03/31 10:20:22;;;;;;;2.08;0.90;;;;;;;15.60;33.35;101352.67;1875685;75;21697;-50
2023/03/31 10:22:51;;;;;;;3.30;0.93;;;;;;;15.99;33.78;101325.03;1872989;75;21041;-50
2023/03/31 10:25:23;;;;;;;2.00;0.90;;;;;;;16.17;32.56;101305.91;1901106;75;21065;-54
2023/03/31 10:27:56;;;;;;;2.17;1.45;;;;;;;16.35;32.14;101331.13;1900826;75;21551;-53
2023/03/31 10:30:28;;;;;;;4.12;1.98;;;;;;;16.31;31.46;101334.89;1902360;75;21468;-53
2023/03/31 10:32:58;;;;;;;2.77;1.12;;;;;;;16.23;31.74;101325.13;1904542;75;21605;-50
2023/03/31 10:35:33;;;;;;;3.27;1.47;;;;;;;15.99;31.62;101338.76;1904476;75;21076;-53
2023/03/31 10:38:13;;;;;;;2.12;0.72;;;;;;;15.86;31.96;101337.24;1904483;75;21144;-51
2023/03/31 10:40:45;;;;;;;3.33;0.93;;;;;;;15.82;31.50;101333.88;1904486;75;21581;-53
2023/03/31 10:43:22;;;;;;;2.42;1.27;;;;;;;15.63;32.08;101329.08;1903834;75;21041;-53
2023/03/31 10:45:55;;;;;;;2.77;1.52;;;;;;;15.60;32.33;101322.59;1904413;75;21041;-53
2023/03/31 10:48:29;;;;;;;4.40;0.80;;;;;;;15.68;32.09;101323.52;1904776;75;21049;-52
2023/03/31 10:51:12;;;;;;;2.62;1.27;;;;;;;15.82;32.34;101325.92;1904605;75;21040;-52
2023/03/31 10:53:47;;;;;;;2.95;1.25;;;;;;;15.94;32.36;101293.87;1904896;75;21057;-53
2023/03/31 10:56:42;;;;;;;2.83;1.02;;;;;;;15.57;33.15;101332.05;1904616;75;21143;-53
2023/03/31 10:59:29;;;;;;;1.12;0.70;;;;;;;15.41;33.13;101335.45;1904596;75;21041;-54
2023/03/31 11:02:24;;;;;;;4.78;1.00;;;;;;;15.33;33.32;101334.14;1904706;75;21526;-51
2023/03/31 11:05:02;;;;;;;7.62;1.80;;;;;;;15.22;33.48;101334.66;1904898;75;21111;-50
2023/03/31 11:07:37;;;;;;;2.27;0.88;;;;;;;15.11;32.90;101321.08;1904399;75;21108;-52
2023/03/31 11:10:30;;;;;;;2.62;1.20;;;;;;;14.94;32.84;101317.89;1902255;75;21114;-52
2023/03/31 11:13:31;;;;;;;3.02;1.10;;;;;;;14.53;33.11;101293.70;1904966;75;21049;-53
2023/03/31 11:16:27;;;;;;;3.42;0.88;;;;;;;14.17;34.10;101313.02;1904699;75;21507;-52
2023/03/31 11:19:02;;;;;;;1.98;0.90;;;;;;;13.80;34.10;101327.03;1904250;75;21037;-53
2023/03/31 11:21:40;;;;;;;3.22;2.02;;;;;;;13.27;35.34;101322.55;1904617;75;21112;-52
2023/03/31 11:24:23;;;;;;;3.55;1.50;;;;;;;13.59;36.33;101323.50;1904824;75;21029;-53
2023/03/31 11:26:56;;;;;;;2.83;0.98;;;;;;;13.93;35.25;101316.30;1904775;75;21033;-50
2023/03/31 11:29:46;;;;;;;1.77;0.90;;;;;;;13.82;34.91;101326.49;1903444;75;21045;-52
2023/03/31 11:32:30;;;;;;;2.27;0.95;;;;;;;13.36;35.47;101327.12;1904526;75;21073;-51
2023/03/31 11:35:01;;;;;;;;;;;;;;;12.99;36.64;101318.00;1907407;75;21041;-53
2023/03/31 11:37:44;;;;;;;2.90;0.88;;;;;;;13.10;36.90;101321.92;1904261;75;20373;-52
2023/03/31 11:40:24;;;;;;;5.95;1.60;;;;;;;13.15;36.89;101312.50;1874454;75;21060;-49
2023/03/31 11:43:01;;;;;;;1.50;0.90;;;;;;;12.89;35.99;101317.48;1903241;75;21536;-53
2023/03/31 11:45:45;;;;;;;1.80;1.20;;;;;;;12.79;36.79;101308.21;1904612;75;21150;-50
2023/03/31 11:48:32;;;;;;;1.27;0.70;;;;;;;12.87;36.93;101322.86;1840424;75;21045;-50
2023/03/31 11:51:04;;;;;;;4.50;1.22;;;;;;;12.70;36.68;101315.56;1904269;75;21174;-50
2023/03/31 11:53:38;;;;;;;2.52;1.00;;;;;;;12.50;36.74;101318.96;1904688;75;21475;-52
2023/03/31 11:56:10;;;;;;;1.45;1.00;;;;;;;12.27;36.70;101306.63;1904578;75;21049;-50